Time;durP1;ratioP1;P1;durP2;ratioP2;P2;SDS_P1;SDS_P2;PMS_P1;PMS_P2;Temp;Humidity;BMP_temperature;BMP_pressure;BME280_temperature;BME280_humidity;BME280_pressure;Samples;Min_cycle;Max_cycle;Signal;HPM_P1;HPM_P2
2022/04/08 00:02:03;;;;;;;6.78;1.15;;;5.70;99.90;;;;;;5111058;27;19938;-73
2022/04/08 00:04:32;;;;;;;7.22;1.30;;;5.60;99.90;;;;;;5119675;27;20049;-73
2022/04/08 00:31:09;;;;;;;1.58;0.40;;;4.90;99.90;;;;;;5136088;23;20066;-76
2022/04/08 00:33:34;;;;;;;2.55;0.70;;;4.50;99.90;;;;;;4935210;29;20035;-76
2022/04/08 00:36:01;;;;;;;6.50;0.93;;;4.30;99.90;;;;;;4951140;29;20042;-77
2022/04/08 00:38:26;;;;;;;3.75;0.85;;;4.60;99.90;;;;;;4950173;29;20509;-77
2022/04/08 00:40:52;;;;;;;2.78;0.80;;;4.20;99.90;;;;;;4932489;29;20051;-78
2022/04/08 00:43:19;;;;;;;5.57;1.00;;;4.40;99.90;;;;;;4948227;29;20090;-77
2022/04/08 00:45:45;;;;;;;4.18;0.75;;;4.10;99.90;;;;;;4951263;29;20039;-77
2022/04/08 00:48:11;;;;;;;7.63;1.13;;;4.70;99.90;;;;;;4951335;29;20039;-77
2022/04/08 00:50:43;;;;;;;3.92;0.80;;;4.30;99.90;;;;;;4950894;29;20097;-77
2022/04/08 00:53:09;;;;;;;7.75;1.30;;;4.40;99.90;;;;;;4950297;29;21263;-77
2022/04/08 00:55:39;;;;;;;5.55;1.05;;;4.70;99.90;;;;;;4950092;29;20046;-78
2022/04/08 00:58:05;;;;;;;7.65;1.50;;;4.40;99.90;;;;;;4935284;29;20031;-77
2022/04/08 01:00:32;;;;;;;;;;;4.30;99.90;;;;;;4935430;29;20043;-77
2022/04/08 01:02:58;;;;;;;6.40;1.60;;;4.30;99.90;;;;;;4950242;29;19929;-77
2022/04/08 01:05:24;;;;;;;9.95;1.70;;;4.00;99.90;;;;;;4949962;29;20035;-77
2022/04/08 01:07:50;;;;;;;;;;;4.30;99.90;;;;;;4938081;29;20050;-78
2022/04/08 01:10:15;;;;;;;7.93;1.23;;;4.20;99.90;;;;;;4950948;29;19919;-78
2022/04/08 01:12:41;;;;;;;10.38;2.10;;;3.60;99.90;;;;;;4934625;29;20050;-78
2022/04/08 01:15:08;;;;;;;12.13;1.85;;;4.00;99.90;;;;;;4934898;29;20118;-78
2022/04/08 01:17:34;;;;;;;10.13;1.23;;;3.70;99.90;;;;;;4935291;29;20146;-78
2022/04/08 01:20:00;;;;;;;10.70;1.70;;;3.50;99.90;;;;;;4935022;29;20446;-77
2022/04/08 01:22:26;;;;;;;7.57;1.73;;;3.80;99.90;;;;;;4934805;29;20742;-78
2022/04/08 01:25:04;;;;;;;7.50;1.30;;;4.00;99.90;;;;;;4949960;29;20538;-78
2022/04/08 01:27:30;;;;;;;10.65;1.60;;;3.80;99.90;;;;;;4950308;29;20062;-78
2022/04/08 01:29:56;;;;;;;6.30;1.23;;;3.80;99.90;;;;;;4949680;28;20479;-78
2022/04/08 01:32:22;;;;;;;7.20;1.17;;;4.10;99.90;;;;;;4942872;29;20102;-78
2022/04/08 01:34:49;;;;;;;6.85;1.23;;;4.00;99.90;;;;;;4950676;29;20051;-78
2022/04/08 01:37:18;;;;;;;5.35;1.38;;;4.10;99.90;;;;;;4950460;29;20053;-78
2022/04/08 01:39:44;;;;;;;7.40;1.27;;;3.60;99.90;;;;;;4944499;29;20051;-78
2022/04/08 01:42:09;;;;;;;10.87;1.40;;;3.50;99.90;;;;;;4950997;29;20047;-78
2022/04/08 01:44:36;;;;;;;5.43;1.33;;;4.00;99.90;;;;;;4950352;29;20305;-78
2022/04/08 01:47:03;;;;;;;11.68;1.50;;;4.00;99.90;;;;;;4950733;28;20043;-77
2022/04/08 01:49:28;;;;;;;7.88;1.00;;;3.60;99.90;;;;;;4954857;28;20070;-78
2022/04/08 01:51:54;;;;;;;4.22;0.85;;;3.80;99.90;;;;;;4962129;28;20069;-78
2022/04/08 01:54:20;;;;;;;5.90;1.20;;;3.60;99.90;;;;;;4963523;28;20085;-78
2022/04/08 01:56:46;;;;;;;8.32;0.90;;;3.50;99.90;;;;;;4954503;29;20410;-78
2022/04/08 01:59:12;;;;;;;8.75;1.13;;;4.10;99.90;;;;;;4954658;28;20050;-78
2022/04/08 02:01:37;;;;;;;4.88;0.88;;;3.70;99.90;;;;;;4954867;28;20047;-78
2022/04/08 02:04:04;;;;;;;7.82;1.13;;;3.50;99.90;;;;;;4954979;28;20039;-74
2022/04/08 02:06:34;;;;;;;6.13;1.00;;;3.70;99.90;;;;;;4966043;28;20046;-74
2022/04/08 02:09:01;;;;;;;6.05;1.23;;;3.60;99.90;;;;;;4937609;29;20043;-74
2022/04/08 02:11:26;;;;;;;10.38;1.60;;;3.70;99.90;;;;;;4953958;29;20050;-74
2022/04/08 02:13:52;;;;;;;10.85;1.70;;;4.10;99.90;;;;;;4937712;29;20039;-74
2022/04/08 02:16:18;;;;;;;7.15;1.42;;;4.00;99.90;;;;;;4953716;29;20126;-74
2022/04/08 02:18:44;;;;;;;10.52;2.42;;;4.20;99.90;;;;;;4953530;29;20043;-74
2022/04/08 02:21:10;;;;;;;11.15;1.50;;;3.80;99.90;;;;;;4953558;29;20094;-74
2022/04/08 02:23:36;;;;;;;9.75;1.30;;;3.80;99.90;;;;;;4935766;29;20489;-74
2022/04/08 02:26:06;;;;;;;6.65;1.40;;;4.10;99.90;;;;;;4952456;29;20036;-74
2022/04/08 02:28:35;;;;;;;11.10;1.55;;;4.40;99.90;;;;;;4937847;29;20102;-74
2022/04/08 02:31:01;;;;;;;6.43;1.25;;;4.20;99.90;;;;;;4951109;28;20059;-74
2022/04/08 02:33:27;;;;;;;6.32;1.30;;;4.30;99.90;;;;;;4942511;29;20040;-75
2022/04/08 02:35:52;;;;;;;5.47;1.10;;;4.20;99.90;;;;;;4934781;29;20050;-74
2022/04/08 02:38:18;;;;;;;5.93;1.08;;;3.70;99.90;;;;;;4953269;28;20445;-74
2022/04/08 02:40:44;;;;;;;10.63;1.42;;;3.70;99.90;;;;;;4938569;29;20051;-74
2022/04/08 02:43:09;;;;;;;7.13;1.15;;;3.70;99.90;;;;;;4936885;29;20103;-74
2022/04/08 02:45:36;;;;;;;6.68;1.23;;;3.60;99.90;;;;;;4942214;28;20145;-74
2022/04/08 02:48:02;;;;;;;4.00;0.90;;;4.00;99.90;;;;;;4949077;29;20043;-74
2022/04/08 02:50:28;;;;;;;7.22;1.20;;;3.70;99.90;;;;;;4954092;29;20039;-74
2022/04/08 02:52:54;;;;;;;7.10;1.13;;;3.70;99.90;;;;;;4953519;28;20458;-74
2022/04/08 02:55:19;;;;;;;6.13;1.13;;;3.80;99.90;;;;;;4953275;29;20075;-75
2022/04/08 02:57:46;;;;;;;8.05;1.55;;;3.60;99.90;;;;;;4953384;29;20051;-75
2022/04/08 03:00:21;;;;;;;6.70;1.33;;;4.00;99.90;;;;;;4937081;29;20058;-74
2022/04/08 03:02:48;;;;;;;13.00;2.03;;;3.90;99.90;;;;;;4951905;29;20498;-75
2022/04/08 03:05:15;;;;;;;10.98;1.90;;;4.20;99.90;;;;;;4937615;29;20079;-74
2022/04/08 03:07:41;;;;;;;7.15;1.58;;;4.30;99.90;;;;;;4950898;29;20509;-74
2022/04/08 03:10:08;;;;;;;6.88;1.40;;;3.90;99.90;;;;;;4963301;28;20126;-75
2022/04/08 03:12:34;;;;;;;5.82;1.30;;;4.00;99.90;;;;;;4935970;29;20050;-74
2022/04/08 03:15:00;;;;;;;6.80;1.30;;;4.30;99.90;;;;;;4947600;29;20043;-75
2022/04/08 03:17:26;;;;;;;8.30;1.42;;;4.00;99.90;;;;;;4952774;29;20043;-74
2022/04/08 03:19:52;;;;;;;6.68;1.15;;;4.20;99.90;;;;;;4936855;29;20402;-74
2022/04/08 03:22:20;;;;;;;7.47;1.35;;;4.00;99.90;;;;;;4937138;29;20121;-74
2022/04/08 03:24:50;;;;;;;7.72;1.30;;;4.00;99.90;;;;;;4952114;29;20533;-74
2022/04/08 03:27:16;;;;;;;6.63;1.20;;;4.20;99.90;;;;;;4933856;29;20043;-74
2022/04/08 03:29:42;;;;;;;;;;;4.20;99.90;;;;;;4948810;28;20062;-74
2022/04/08 03:32:08;;;;;;;6.15;0.98;;;3.90;99.90;;;;;;4954311;28;19922;-75
2022/04/08 03:34:34;;;;;;;8.48;1.25;;;4.10;99.90;;;;;;4937359;28;20122;-74
2022/04/08 03:37:00;;;;;;;7.18;1.35;;;3.80;99.90;;;;;;4939519;29;20078;-74
2022/04/08 03:39:26;;;;;;;4.78;1.00;;;4.00;99.90;;;;;;4957597;28;20145;-74
2022/04/08 03:41:53;;;;;;;6.78;1.20;;;3.70;99.90;;;;;;4937156;29;20043;-74
2022/04/08 03:44:19;;;;;;;12.13;1.58;;;3.90;99.90;;;;;;4935991;29;20487;-74
2022/04/08 03:46:46;;;;;;;7.05;1.27;;;3.60;99.90;;;;;;4951915;29;20054;-74
2022/04/08 03:49:14;;;;;;;9.70;1.40;;;3.90;99.90;;;;;;4952331;29;20035;-74
2022/04/08 03:51:44;;;;;;;8.13;1.30;;;3.70;99.90;;;;;;4958412;28;20091;-75
2022/04/08 03:54:10;;;;;;;5.97;1.23;;;3.80;99.90;;;;;;4952523;29;20051;-75
2022/04/08 03:56:36;;;;;;;;;;;4.00;99.90;;;;;;4953113;29;20458;-74
2022/04/08 03:59:03;;;;;;;6.07;1.02;;;4.50;99.90;;;;;;4952519;28;19929;-75
2022/04/08 04:01:28;;;;;;;;;;;4.20;99.90;;;;;;4951862;28;20382;-75
2022/04/08 04:03:54;;;;;;;5.05;1.08;;;3.80;99.90;;;;;;4950851;28;19923;-74
2022/04/08 04:06:20;;;;;;;4.43;1.17;;;3.60;99.90;;;;;;4934259;28;20047;-74
2022/04/08 04:08:45;;;;;;;3.05;0.93;;;3.20;99.90;;;;;;4932497;29;20786;-74
2022/04/08 04:11:16;;;;;;;6.93;1.40;;;3.10;99.90;;;;;;4921348;29;20043;-74
2022/04/08 04:13:45;;;;;;;3.97;0.93;;;2.90;99.90;;;;;;4924882;29;20036;-74
2022/04/08 04:16:11;;;;;;;4.22;1.00;;;2.90;99.90;;;;;;4947423;29;20134;-74
2022/04/08 04:18:38;;;;;;;3.60;1.10;;;3.30;99.90;;;;;;4952105;29;20039;-74
2022/04/08 04:21:04;;;;;;;;;;;2.90;99.90;;;;;;4952157;28;20130;-74
2022/04/08 04:23:33;;;;;;;3.33;1.10;;;2.90;99.90;;;;;;4935644;29;20396;-74
2022/04/08 04:26:03;;;;;;;2.17;0.80;;;2.90;99.90;;;;;;4951269;28;20051;-74
2022/04/08 04:28:29;;;;;;;4.50;0.93;;;2.80;99.90;;;;;;4967749;28;20451;-75
2022/04/08 04:30:56;;;;;;;;;;;3.20;99.90;;;;;;4950512;29;20245;-74
2022/04/08 04:33:22;;;;;;;3.25;0.95;;;3.20;99.90;;;;;;4965955;28;20458;-74
2022/04/08 04:35:48;;;;;;;5.47;1.15;;;2.70;99.90;;;;;;4949716;29;20218;-74
2022/04/08 04:38:14;;;;;;;2.28;1.02;;;3.00;99.90;;;;;;4949194;28;20049;-74
2022/04/08 04:40:39;;;;;;;3.15;0.82;;;2.60;99.90;;;;;;4934380;29;20051;-74
2022/04/08 04:43:05;;;;;;;3.45;0.88;;;2.80;99.90;;;;;;4950815;28;20054;-74
2022/04/08 04:45:31;;;;;;;2.10;1.20;;;2.60;99.90;;;;;;4933587;29;20102;-74
2022/04/08 04:47:57;;;;;;;5.72;1.20;;;3.00;99.90;;;;;;4943176;29;20118;-74
2022/04/08 04:50:22;;;;;;;2.65;0.95;;;3.00;99.90;;;;;;4950671;29;20058;-74
2022/04/08 04:52:48;;;;;;;3.97;1.17;;;3.30;99.90;;;;;;4930515;29;20039;-74
2022/04/08 04:55:14;;;;;;;5.70;1.15;;;3.40;99.90;;;;;;4935428;29;20125;-74
2022/04/08 04:57:40;;;;;;;4.53;1.38;;;3.40;99.90;;;;;;4939912;28;20448;-74
2022/04/08 05:00:09;;;;;;;4.63;1.27;;;3.70;99.90;;;;;;4934665;29;20051;-74
2022/04/08 05:02:35;;;;;;;6.88;1.98;;;3.40;99.90;;;;;;4951108;29;20043;-74
2022/04/08 05:05:02;;;;;;;3.47;1.23;;;3.40;99.90;;;;;;4966701;28;20135;-74
2022/04/08 05:07:27;;;;;;;4.80;1.40;;;3.40;99.90;;;;;;4950900;29;20490;-74
2022/04/08 05:09:53;;;;;;;4.80;1.08;;;3.40;99.90;;;;;;4954569;28;20042;-74
2022/04/08 05:12:19;;;;;;;3.00;1.10;;;3.70;99.90;;;;;;4926876;29;20522;-74
2022/04/08 05:14:44;;;;;;;4.05;1.05;;;3.80;99.90;;;;;;4933214;28;20155;-74
2022/04/08 05:17:10;;;;;;;4.53;1.23;;;3.80;99.90;;;;;;4949823;29;20070;-76
2022/04/08 05:19:36;;;;;;;2.70;0.82;;;3.50;99.90;;;;;;4932699;29;20050;-74
2022/04/08 05:22:02;;;;;;;2.35;1.23;;;3.40;99.90;;;;;;4951855;28;20153;-74
2022/04/08 05:24:27;;;;;;;1.70;0.90;;;3.30;99.90;;;;;;4952537;28;20513;-74
2022/04/08 05:26:53;;;;;;;5.53;1.00;;;3.30;99.90;;;;;;4936207;29;20125;-75
2022/04/08 05:29:20;;;;;;;4.80;1.08;;;3.60;99.90;;;;;;4952484;29;20279;-75
2022/04/08 05:31:47;;;;;;;4.38;1.05;;;3.30;99.90;;;;;;4914894;28;1094673;-75
2022/04/08 05:34:13;;;;;;;4.10;1.08;;;3.50;99.90;;;;;;4954056;29;20084;-75
2022/04/08 05:36:38;;;;;;;3.08;0.77;;;3.60;99.90;;;;;;4954901;29;20078;-75
2022/04/08 05:39:04;;;;;;;2.72;0.80;;;3.50;99.90;;;;;;4953807;29;20152;-75
2022/04/08 05:41:30;;;;;;;3.35;1.02;;;3.70;99.90;;;;;;4952013;29;20130;-75
2022/04/08 05:43:55;;;;;;;2.00;0.90;;;3.60;99.90;;;;;;4937712;29;20150;-75
2022/04/08 05:46:21;;;;;;;2.27;0.80;;;3.60;99.90;;;;;;4953317;29;20311;-75
2022/04/08 05:48:47;;;;;;;1.80;0.70;;;3.90;99.90;;;;;;4953419;29;20333;-74
2022/04/08 05:51:12;;;;;;;2.70;0.80;;;3.70;99.90;;;;;;4953341;29;20333;-75
2022/04/08 05:53:38;;;;;;;6.23;1.00;;;3.60;99.90;;;;;;4937591;29;20490;-75
2022/04/08 05:56:04;;;;;;;2.90;1.10;;;3.90;99.90;;;;;;4953423;29;20903;-75
2022/04/08 05:58:31;;;;;;;3.72;1.10;;;3.70;99.90;;;;;;4952805;29;20126;-75
2022/04/08 06:00:56;;;;;;;3.67;1.13;;;3.80;99.90;;;;;;4952886;29;20039;-75
2022/04/08 06:03:22;;;;;;;4.05;1.08;;;3.90;99.90;;;;;;4953283;29;20603;-75
2022/04/08 06:05:48;;;;;;;4.10;1.48;;;3.80;99.90;;;;;;4926171;29;20185;-75
2022/04/08 06:08:13;;;;;;;3.97;0.98;;;4.00;99.90;;;;;;4952754;29;20414;-75
2022/04/08 06:10:39;;;;;;;1.95;0.80;;;4.00;99.90;;;;;;4951853;28;20051;-75
2022/04/08 06:13:06;;;;;;;3.45;1.17;;;4.30;99.90;;;;;;4952799;29;20057;-75
2022/04/08 06:15:32;;;;;;;5.35;1.13;;;4.00;99.90;;;;;;4946393;28;20139;-75
2022/04/08 06:17:58;;;;;;;3.55;1.15;;;4.10;99.90;;;;;;4966717;28;20142;-75
2022/04/08 06:20:24;;;;;;;3.65;1.00;;;4.00;99.90;;;;;;4954745;28;20074;-74
2022/04/08 06:22:52;;;;;;;4.68;0.88;;;4.30;99.90;;;;;;4951039;28;20528;-75
2022/04/08 06:25:20;;;;;;;4.38;1.40;;;4.40;99.90;;;;;;4952973;29;20486;-74
2022/04/08 06:28:04;;;;;;;2.92;1.25;;;4.10;99.90;;;;;;4954232;28;20176;-74
2022/04/08 06:30:37;;;;;;;4.15;1.50;;;4.10;99.90;;;;;;4936474;29;20042;-75
2022/04/08 06:33:04;;;;;;;7.25;2.22;;;4.20;99.90;;;;;;4952287;28;20047;-75
2022/04/08 06:35:30;;;;;;;5.00;1.30;;;4.80;99.90;;;;;;4938451;29;20035;-75
2022/04/08 06:38:07;;;;;;;5.40;1.48;;;5.10;99.90;;;;;;4952200;29;20050;-75
2022/04/08 06:40:35;;;;;;;;;;;5.50;99.90;;;;;;4965472;28;20126;-74
2022/04/08 06:43:02;;;;;;;8.63;1.60;;;5.40;99.90;;;;;;4953356;29;20383;-74
2022/04/08 06:45:28;;;;;;;5.20;1.80;;;5.50;99.90;;;;;;4969250;28;20047;-74
2022/04/08 06:47:54;;;;;;;10.75;1.83;;;5.90;99.90;;;;;;4953217;29;20517;-75
2022/04/08 06:50:20;;;;;;;5.10;1.48;;;5.90;99.90;;;;;;4964835;28;20203;-75
2022/04/08 06:52:47;;;;;;;4.50;1.50;;;5.90;99.90;;;;;;4950600;29;20466;-75
2022/04/08 06:55:12;;;;;;;;;;;6.10;99.90;;;;;;4953328;28;20083;-75
2022/04/08 06:57:39;;;;;;;7.47;1.48;;;6.20;99.90;;;;;;4952388;29;19961;-77
2022/04/08 07:00:06;;;;;;;4.97;1.30;;;6.40;99.90;;;;;;4968696;28;20058;-75
2022/04/08 07:02:32;;;;;;;5.00;1.42;;;6.30;99.90;;;;;;4952192;29;20133;-76
2022/04/08 07:04:58;;;;;;;5.38;1.27;;;6.40;99.90;;;;;;4951246;29;20086;-75
2022/04/08 07:07:28;;;;;;;5.13;1.48;;;6.70;99.90;;;;;;4933677;29;20042;-75
2022/04/08 07:09:57;;;;;;;3.80;1.33;;;6.80;99.90;;;;;;4934263;29;20054;-75
2022/04/08 07:12:24;;;;;;;6.82;1.40;;;6.80;99.90;;;;;;4935096;29;20504;-75
2022/04/08 07:14:50;;;;;;;7.03;1.30;;;6.90;99.90;;;;;;4952461;29;20043;-75
2022/04/08 07:17:16;;;;;;;6.40;1.45;;;6.90;99.90;;;;;;4934833;29;20521;-75
2022/04/08 07:19:42;;;;;;;3.53;1.02;;;7.00;99.90;;;;;;4950426;29;20035;-75
2022/04/08 07:22:07;;;;;;;5.35;1.40;;;7.20;99.90;;;;;;4936987;29;20046;-76
2022/04/08 07:24:33;;;;;;;5.32;1.48;;;7.10;99.90;;;;;;4952063;29;20125;-75
2022/04/08 07:26:59;;;;;;;10.00;1.88;;;7.10;99.90;;;;;;4950153;28;20050;-75
2022/04/08 07:29:24;;;;;;;6.32;1.50;;;7.10;99.90;;;;;;4952388;28;20064;-75
2022/04/08 07:31:50;;;;;;;6.88;1.38;;;7.10;99.90;;;;;;4946027;28;20055;-75
2022/04/08 07:34:16;;;;;;;6.40;1.48;;;7.10;99.90;;;;;;4935026;29;20043;-75
2022/04/08 07:36:41;;;;;;;6.03;1.40;;;7.30;99.90;;;;;;4954948;28;20343;-75
2022/04/08 07:39:07;;;;;;;4.60;1.60;;;7.10;99.90;;;;;;4950050;28;20470;-75
2022/04/08 07:41:33;;;;;;;4.43;1.02;;;6.80;99.90;;;;;;4934935;29;20043;-75
2022/04/08 07:43:58;;;;;;;3.80;1.10;;;6.50;99.90;;;;;;4919666;29;20402;-74
2022/04/08 07:46:24;;;;;;;4.97;1.00;;;6.10;99.90;;;;;;4935800;29;20119;-74
2022/04/08 07:48:50;;;;;;;3.80;0.88;;;5.60;99.90;;;;;;4947273;28;21336;-74
2022/04/08 07:51:16;;;;;;;6.40;1.05;;;5.60;99.90;;;;;;4932900;29;20094;-74
2022/04/08 07:53:42;;;;;;;4.53;1.15;;;5.60;99.90;;;;;;4949528;28;20053;-74
2022/04/08 07:56:08;;;;;;;3.58;1.17;;;5.90;99.90;;;;;;4959519;28;20125;-75
2022/04/08 07:58:33;;;;;;;7.70;1.45;;;6.20;99.90;;;;;;4944840;28;20097;-75
2022/04/08 08:00:59;;;;;;;4.85;1.40;;;6.50;99.90;;;;;;4926057;28;20043;-75
2022/04/08 08:03:25;;;;;;;4.82;1.20;;;6.70;99.90;;;;;;4943361;28;20055;-75
2022/04/08 08:05:53;;;;;;;5.03;1.10;;;7.10;99.90;;;;;;4951442;28;20399;-74
2022/04/08 08:08:19;;;;;;;5.43;1.35;;;7.10;99.90;;;;;;4949011;28;20074;-75
2022/04/08 08:10:46;;;;;;;3.30;1.13;;;7.00;99.90;;;;;;4949285;28;20047;-75
2022/04/08 08:13:11;;;;;;;4.60;1.50;;;7.30;99.90;;;;;;4935403;29;20043;-75
2022/04/08 08:15:37;;;;;;;3.95;1.23;;;7.40;99.90;;;;;;4951437;29;20577;-75
2022/04/08 08:18:05;;;;;;;6.65;1.67;;;7.80;99.90;;;;;;4953559;28;20047;-75
2022/04/08 08:20:30;;;;;;;8.52;1.60;;;7.80;99.90;;;;;;4950804;28;20105;-75
2022/04/08 08:22:56;;;;;;;6.85;1.35;;;7.60;99.90;;;;;;4950671;29;20481;-75
2022/04/08 08:25:22;;;;;;;6.80;1.23;;;7.60;99.90;;;;;;4950780;28;20058;-75
2022/04/08 08:27:53;;;;;;;9.25;1.73;;;7.40;99.90;;;;;;4935715;29;20043;-75
2022/04/08 08:30:19;;;;;;;8.35;1.58;;;7.40;99.90;;;;;;4949203;28;20036;-75
2022/04/08 08:32:46;;;;;;;;;;;7.70;99.90;;;;;;4948585;29;20071;-75
2022/04/08 08:35:14;;;;;;;6.38;1.70;;;8.00;99.90;;;;;;4965809;28;19965;-75
2022/04/08 08:37:41;;;;;;;4.43;1.13;;;8.10;99.90;;;;;;4934524;29;20114;-75
2022/04/08 08:40:08;;;;;;;6.60;1.42;;;8.20;99.90;;;;;;4950529;29;20129;-75
2022/04/08 08:42:38;;;;;;;8.57;1.38;;;8.20;99.90;;;;;;4967840;28;20082;-74
2022/04/08 08:45:05;;;;;;;8.07;1.08;;;8.10;99.90;;;;;;4965620;28;20260;-74
2022/04/08 08:47:31;;;;;;;7.45;1.50;;;7.80;99.90;;;;;;4925663;29;20393;-74
2022/04/08 08:49:58;;;;;;;6.43;1.30;;;7.60;99.90;;;;;;4948231;28;20106;-74
2022/04/08 08:52:24;;;;;;;6.00;1.60;;;7.50;99.90;;;;;;4950970;28;20094;-75
2022/04/08 08:54:51;;;;;;;4.13;1.13;;;7.70;99.90;;;;;;4950150;28;20054;-76
2022/04/08 08:57:17;;;;;;;;;;;8.10;99.90;;;;;;4950641;28;20065;-75
2022/04/08 08:59:44;;;;;;;5.13;1.20;;;8.10;99.90;;;;;;4950313;28;19918;-75
2022/04/08 09:02:11;;;;;;;7.95;1.10;;;8.00;99.90;;;;;;4950483;28;20121;-75
2022/04/08 09:04:41;;;;;;;4.95;1.30;;;7.90;99.90;;;;;;4950389;29;20051;-75
2022/04/08 09:07:29;;;;;;;6.05;1.20;;;7.80;99.90;;;;;;4925386;29;20051;-75
2022/04/08 09:09:57;;;;;;;4.85;0.90;;;6.90;99.90;;;;;;4949216;29;20047;-76
2022/04/08 09:12:25;;;;;;;4.07;0.90;;;6.40;99.90;;;;;;4950466;29;20031;-77
2022/04/08 09:14:55;;;;;;;4.63;1.20;;;5.90;99.90;;;;;;4948475;29;20042;-77
2022/04/08 09:17:24;;;;;;;7.18;1.30;;;5.70;99.90;;;;;;4948182;28;20401;-77
2022/04/08 09:19:58;;;;;;;5.93;1.40;;;6.10;99.90;;;;;;4964832;28;20126;-77
2022/04/08 09:22:36;;;;;;;8.85;1.70;;;6.60;99.90;;;;;;4949783;28;20073;-76
2022/04/08 09:25:10;;;;;;;4.50;1.45;;;7.10;99.90;;;;;;4967137;28;20046;-75
2022/04/08 09:27:37;;;;;;;5.97;1.20;;;7.50;99.90;;;;;;4950273;28;20426;-75
2022/04/08 09:30:03;;;;;;;5.90;1.30;;;7.60;99.90;;;;;;4930427;29;20040;-75
2022/04/08 09:32:30;;;;;;;1.80;0.70;;;7.40;99.90;;;;;;4952258;28;20106;-76
2022/04/08 09:34:57;;;;;;;2.22;0.52;;;6.30;99.90;;;;;;4947158;29;20470;-76
2022/04/08 09:37:23;;;;;;;1.35;0.40;;;5.50;99.90;;;;;;4949707;29;20453;-76
2022/04/08 09:39:52;;;;;;;1.20;0.30;;;5.20;99.90;;;;;;4932169;29;21024;-75
2022/04/08 09:42:17;;;;;;;1.00;0.50;;;5.20;99.90;;;;;;4945800;28;20043;-75
2022/04/08 09:44:43;;;;;;;2.53;1.03;;;5.10;99.90;;;;;;4964172;28;20075;-75
2022/04/08 09:47:09;;;;;;;1.83;0.90;;;5.30;99.90;;;;;;4947092;28;20317;-75
2022/04/08 09:49:35;;;;;;;5.50;0.90;;;5.10;99.90;;;;;;4929281;29;20517;-75
2022/04/08 09:52:05;;;;;;;3.30;0.90;;;5.40;99.90;;;;;;4948836;29;20121;-75
2022/04/08 09:54:33;;;;;;;2.45;0.80;;;6.00;99.90;;;;;;4947989;29;20604;-75
2022/04/08 09:57:00;;;;;;;5.88;1.08;;;6.30;99.90;;;;;;4945997;28;20517;-75
2022/04/08 09:59:29;;;;;;;3.03;0.98;;;6.90;99.90;;;;;;4948779;29;20086;-75
2022/04/08 10:01:57;;;;;;;3.17;1.20;;;7.50;99.90;;;;;;4949707;29;20090;-75
2022/04/08 10:04:24;;;;;;;6.40;1.75;;;7.70;99.90;;;;;;4947174;28;20486;-75
2022/04/08 10:06:49;;;;;;;3.90;1.05;;;7.90;99.90;;;;;;4948946;29;20062;-74
2022/04/08 10:09:19;;;;;;;4.75;1.20;;;8.00;99.90;;;;;;4933047;29;20154;-75
2022/04/08 10:12:09;;;;;;;3.70;0.80;;;7.40;99.90;;;;;;4949704;28;20525;-75
2022/04/08 10:14:47;;;;;;;4.93;0.98;;;6.70;99.90;;;;;;4947864;28;20039;-75
2022/04/08 10:17:14;;;;;;;1.80;0.65;;;6.20;99.90;;;;;;4948065;28;20102;-74
2022/04/08 10:19:40;;;;;;;3.53;0.77;;;6.20;99.90;;;;;;4951975;29;20058;-75
2022/04/08 10:22:18;;;;;;;2.38;0.65;;;6.10;99.90;;;;;;4951639;29;20046;-75
2022/04/08 10:24:52;;;;;;;4.43;0.80;;;6.40;99.90;;;;;;4951483;29;20058;-75
2022/04/08 10:27:31;;;;;;;5.03;0.82;;;6.70;99.90;;;;;;4955722;28;20039;-75
2022/04/08 10:29:57;;;;;;;4.07;0.90;;;7.10;99.90;;;;;;4968103;28;20084;-75
2022/04/08 10:32:23;;;;;;;5.65;1.10;;;7.40;99.90;;;;;;4935887;29;20078;-76
2022/04/08 10:34:49;;;;;;;4.82;1.20;;;7.30;99.90;;;;;;4937702;29;20494;-75
2022/04/08 10:37:20;;;;;;;5.43;0.90;;;7.50;99.90;;;;;;4937744;29;20565;-75
2022/04/08 10:40:02;;;;;;;4.78;1.05;;;8.10;99.90;;;;;;4955597;28;20047;-75
2022/04/08 10:42:29;;;;;;;5.32;1.13;;;8.50;99.90;;;;;;4953657;29;20039;-75
2022/04/08 10:44:55;;;;;;;6.93;1.20;;;8.40;99.90;;;;;;4953652;29;20121;-75
2022/04/08 10:47:23;;;;;;;3.83;0.90;;;7.80;99.90;;;;;;4953519;28;20058;-75
2022/04/08 10:49:56;;;;;;;3.10;0.90;;;7.00;99.90;;;;;;4920669;29;20102;-75
2022/04/08 10:52:27;;;;;;;1.88;0.80;;;6.50;99.90;;;;;;4940111;29;20484;-75
2022/04/08 10:55:10;;;;;;;5.70;1.08;;;6.10;99.90;;;;;;4950990;28;20041;-75
2022/04/08 10:57:42;;;;;;;5.90;1.30;;;6.20;99.90;;;;;;4929872;29;20498;-76
2022/04/08 11:00:17;;;;;;;3.58;0.98;;;6.50;99.90;;;;;;4947707;29;20039;-75
2022/04/08 11:02:45;;;;;;;3.13;1.00;;;6.80;99.90;;;;;;4952519;29;20190;-74
2022/04/08 11:05:13;;;;;;;4.88;1.30;;;7.40;99.90;;;;;;4952044;28;20141;-75
2022/04/08 11:07:40;;;;;;;4.72;1.58;;;7.60;99.90;;;;;;4952379;29;20047;-77
2022/04/08 11:10:18;;;;;;;6.35;1.42;;;8.00;99.90;;;;;;4949666;28;20039;-74
2022/04/08 11:12:51;;;;;;;6.13;1.33;;;8.20;99.90;;;;;;4950568;29;20047;-75
2022/04/08 11:15:27;;;;;;;7.70;1.30;;;8.50;99.90;;;;;;4949280;29;20429;-75
2022/04/08 11:17:53;;;;;;;4.90;1.10;;;8.40;99.90;;;;;;4936893;29;20370;-74
2022/04/08 11:20:23;;;;;;;6.60;1.20;;;8.40;99.90;;;;;;4931974;28;20043;-74
2022/04/08 11:22:52;;;;;;;7.60;1.35;;;8.40;99.90;;;;;;4936357;29;20066;-75
2022/04/08 11:25:28;;;;;;;4.85;1.20;;;8.30;99.90;;;;;;4964465;28;20086;-75
2022/04/08 11:28:03;;;;;;;6.13;1.33;;;8.30;99.90;;;;;;4947414;29;20574;-74
2022/04/08 11:30:30;;;;;;;5.53;1.25;;;8.40;99.90;;;;;;4951042;28;20414;-75
2022/04/08 11:32:57;;;;;;;4.38;1.00;;;8.50;99.90;;;;;;4951331;28;20066;-75
2022/04/08 11:35:28;;;;;;;8.40;1.10;;;8.50;99.90;;;;;;4936935;29;20040;-75
2022/04/08 11:37:55;;;;;;;6.20;1.10;;;8.50;99.90;;;;;;4948480;28;20134;-75
2022/04/08 11:40:21;;;;;;;4.50;1.10;;;8.50;99.90;;;;;;4951968;29;20058;-75
2022/04/08 11:42:46;;;;;;;6.57;1.10;;;8.60;99.90;;;;;;4950967;29;20113;-75
2022/04/08 11:45:14;;;;;;;4.30;1.10;;;8.70;99.90;;;;;;4950468;28;20171;-74
2022/04/08 11:47:46;;;;;;;5.63;1.35;;;8.60;99.90;;;;;;4947956;28;20047;-75
2022/04/08 11:50:12;;;;;;;5.15;1.30;;;8.60;99.90;;;;;;4956230;28;20122;-76
2022/04/08 11:52:38;;;;;;;7.00;1.00;;;8.90;99.90;;;;;;4952154;29;20067;-75
2022/04/08 11:55:08;;;;;;;6.22;1.27;;;9.20;99.90;;;;;;4951729;28;20516;-75
2022/04/08 11:57:35;;;;;;;8.25;1.70;;;9.30;99.90;;;;;;4951989;29;20067;-75
2022/04/08 12:00:10;;;;;;;4.80;1.00;;;9.30;99.90;;;;;;4937704;29;20054;-75
2022/04/08 12:02:36;;;;;;;4.15;1.20;;;9.00;99.90;;;;;;4934547;29;20094;-77
2022/04/08 12:05:03;;;;;;;4.15;1.05;;;8.70;99.90;;;;;;4935307;28;20070;-77
2022/04/08 12:07:29;;;;;;;;;;;8.60;99.90;;;;;;4937686;29;20058;-77
2022/04/08 12:09:57;;;;;;;5.07;1.23;;;8.50;99.90;;;;;;4949263;28;20467;-75
2022/04/08 12:12:29;;;;;;;5.22;1.08;;;8.50;99.90;;;;;;4953534;28;20086;-74
2022/04/08 12:15:05;;;;;;;5.38;1.13;;;8.70;99.90;;;;;;4950861;29;20039;-75
2022/04/08 12:17:38;;;;;;;3.70;1.00;;;9.10;99.90;;;;;;4948975;28;20051;-76
2022/04/08 12:20:05;;;;;;;6.38;1.30;;;9.10;99.90;;;;;;4950822;29;20121;-75
2022/04/08 12:22:33;;;;;;;5.13;1.00;;;9.10;99.90;;;;;;4935673;29;20051;-75
2022/04/08 12:24:58;;;;;;;3.85;1.00;;;9.20;99.90;;;;;;4950846;28;20033;-74
2022/04/08 12:27:25;;;;;;;5.63;1.45;;;9.20;99.90;;;;;;4949131;29;20457;-75
2022/04/08 12:30:01;;;;;;;6.13;1.30;;;9.60;99.90;;;;;;4935082;28;20047;-74
2022/04/08 12:32:39;;;;;;;7.10;1.23;;;9.40;99.90;;;;;;4965382;28;20068;-75
2022/04/08 12:35:10;;;;;;;5.28;1.10;;;8.70;99.90;;;;;;4955672;28;20043;-75
2022/04/08 12:37:36;;;;;;;5.65;1.30;;;8.40;99.90;;;;;;4948307;29;20039;-75
2022/04/08 12:40:06;;;;;;;4.80;1.10;;;8.00;99.90;;;;;;4965390;28;20439;-75
2022/04/08 12:42:35;;;;;;;5.82;1.00;;;7.90;99.90;;;;;;4948912;29;20042;-75
2022/04/08 12:45:03;;;;;;;3.95;1.00;;;7.70;99.90;;;;;;4949502;28;20130;-76
2022/04/08 12:47:29;;;;;;;3.05;0.90;;;7.70;99.90;;;;;;4946948;29;20126;-77
2022/04/08 12:49:55;;;;;;;4.53;0.98;;;7.70;99.90;;;;;;4949437;29;20351;-84
2022/04/08 12:52:21;;;;;;;4.63;0.90;;;7.80;99.90;;;;;;4950351;29;20043;-78
2022/04/08 12:54:46;;;;;;;6.28;1.13;;;8.40;99.90;;;;;;4946072;29;20047;-79
2022/04/08 12:57:12;;;;;;;3.67;1.00;;;8.70;99.90;;;;;;4949980;29;20039;-80
2022/04/08 12:59:38;;;;;;;3.83;1.30;;;8.90;99.90;;;;;;4943336;28;20051;-79
2022/04/08 13:02:05;;;;;;;4.28;0.90;;;9.00;99.90;;;;;;4948811;29;20427;-79
2022/04/08 13:04:31;;;;;;;5.43;1.02;;;9.10;99.90;;;;;;4951342;29;20158;-79
2022/04/08 13:06:59;;;;;;;2.75;0.80;;;9.30;99.90;;;;;;4949794;29;20570;-79
2022/04/08 13:09:25;;;;;;;7.28;1.27;;;9.20;99.90;;;;;;4952259;28;20051;-80
2022/04/08 13:11:51;;;;;;;4.28;0.85;;;9.40;99.90;;;;;;4950764;29;20047;-79
2022/04/08 13:14:17;;;;;;;3.35;0.90;;;9.50;99.90;;;;;;4950748;28;20047;-80
2022/04/08 13:16:42;;;;;;;7.32;1.23;;;9.90;99.90;;;;;;4957201;28;20039;-80
2022/04/08 13:19:08;;;;;;;3.50;0.90;;;9.90;99.90;;;;;;4929662;29;20055;-79
2022/04/08 13:21:34;;;;;;;6.43;1.05;;;9.70;99.90;;;;;;4962988;28;20054;-79
2022/04/08 13:24:00;;;;;;;3.08;0.75;;;9.30;99.70;;;;;;4945788;28;20497;-79
2022/04/08 13:26:27;;;;;;;4.13;0.70;;;9.40;99.90;;;;;;4964864;28;20039;-80